sensor_id;sensor_type;location;lat;lon;timestamp;pressure;altitude;pressure_sealevel;temperature;humidity
6565;BME280;3316;44.118;27.258;2023-02-28T00:00:17;102155.53;;;4.22;100.00
6565;BME280;3316;44.118;27.258;2023-02-28T00:02:43;102182.91;;;4.33;100.00
6565;BME280;3316;44.118;27.258;2023-02-28T00:05:10;102168.63;;;4.24;100.00
6565;BME280;3316;44.118;27.258;2023-02-28T00:07:37;102179.47;;;4.34;100.00
6565;BME280;3316;44.118;27.258;2023-02-28T00:10:05;102182.44;;;4.43;100.00
6565;BME280;3316;44.118;27.258;2023-02-28T00:12:31;102188.59;;;4.45;100.00
6565;BME280;3316;44.118;27.258;2023-02-28T00:14:57;102187.28;;;4.57;100.00
6565;BME280;3316;44.118;27.258;2023-02-28T00:17:22;102189.06;;;4.58;100.00
6565;BME280;3316;44.118;27.258;2023-02-28T00:19:49;102152.72;;;4.38;100.00
6565;BME280;3316;44.118;27.258;2023-02-28T00:22:16;102186.84;;;4.68;100.00
6565;BME280;3316;44.118;27.258;2023-02-28T00:24:42;102148.41;;;4.63;100.00
6565;BME280;3316;44.118;27.258;2023-02-28T00:27:08;102145.09;;;4.67;100.00
6565;BME280;3316;44.118;27.258;2023-02-28T00:29:34;102168.59;;;4.68;100.00
6565;BME280;3316;44.118;27.258;2023-02-28T00:31:59;102181.03;;;4.74;100.00
6565;BME280;3316;44.118;27.258;2023-02-28T00:34:25;102177.94;;;4.62;100.00
6565;BME280;3316;44.118;27.258;2023-02-28T00:36:50;102171.19;;;4.44;100.00
6565;BME280;3316;44.118;27.258;2023-02-28T00:39:16;102180.34;;;4.35;100.00
6565;BME280;3316;44.118;27.258;2023-02-28T00:41:42;102137.66;;;4.09;100.00
6565;BME280;3316;44.118;27.258;2023-02-28T00:44:07;102184.50;;;4.30;100.00
6565;BME280;3316;44.118;27.258;2023-02-28T00:46:33;102193.50;;;4.38;100.00
6565;BME280;3316;44.118;27.258;2023-02-28T00:48:58;102190.72;;;4.33;100.00
6565;BME280;3316;44.118;27.258;2023-02-28T00:51:24;102182.69;;;4.49;100.00
6565;BME280;3316;44.118;27.258;2023-02-28T00:53:49;102172.31;;;4.51;100.00
6565;BME280;3316;44.118;27.258;2023-02-28T00:56:15;102135.94;;;4.32;100.00
6565;BME280;3316;44.118;27.258;2023-02-28T00:58:40;102154.44;;;4.38;100.00
6565;BME280;3316;44.118;27.258;2023-02-28T01:01:06;102165.66;;;4.37;100.00
6565;BME280;3316;44.118;27.258;2023-02-28T01:03:32;102184.09;;;4.41;100.00
6565;BME280;3316;44.118;27.258;2023-02-28T01:05:57;102187.25;;;4.33;100.00
6565;BME280;3316;44.118;27.258;2023-02-28T01:08:23;102210.16;;;4.41;100.00
6565;BME280;3316;44.118;27.258;2023-02-28T01:10:49;102199.06;;;4.47;100.00
6565;BME280;3316;44.118;27.258;2023-02-28T01:13:15;102207.63;;;4.65;100.00
6565;BME280;3316;44.118;27.258;2023-02-28T01:15:45;102213.69;;;4.64;100.00
6565;BME280;3316;44.118;27.258;2023-02-28T01:18:13;102213.00;;;4.70;100.00
6565;BME280;3316;44.118;27.258;2023-02-28T01:20:38;102202.59;;;4.70;100.00
6565;BME280;3316;44.118;27.258;2023-02-28T01:23:04;102132.75;;;4.17;100.00
6565;BME280;3316;44.118;27.258;2023-02-28T01:25:29;102214.38;;;4.60;100.00
6565;BME280;3316;44.118;27.258;2023-02-28T01:27:55;102219.16;;;4.49;100.00
6565;BME280;3316;44.118;27.258;2023-02-28T01:30:21;102221.66;;;4.69;100.00
6565;BME280;3316;44.118;27.258;2023-02-28T01:32:46;102214.97;;;4.53;100.00
6565;BME280;3316;44.118;27.258;2023-02-28T01:35:12;102200.63;;;4.42;100.00
6565;BME280;3316;44.118;27.258;2023-02-28T01:37:37;102194.00;;;4.50;100.00
6565;BME280;3316;44.118;27.258;2023-02-28T01:40:03;102205.72;;;4.61;100.00
6565;BME280;3316;44.118;27.258;2023-02-28T01:42:29;102212.31;;;4.51;100.00
6565;BME280;3316;44.118;27.258;2023-02-28T01:47:45;102221.66;;;4.46;100.00
6565;BME280;3316;44.118;27.258;2023-02-28T01:50:15;102207.00;;;4.28;100.00
6565;BME280;3316;44.118;27.258;2023-02-28T01:52:42;102236.16;;;4.40;100.00
6565;BME280;3316;44.118;27.258;2023-02-28T01:55:10;102186.06;;;4.25;100.00
6565;BME280;3316;44.118;27.258;2023-02-28T01:57:49;102230.88;;;4.61;100.00
6565;BME280;3316;44.118;27.258;2023-02-28T02:00:21;102229.94;;;4.59;100.00
6565;BME280;3316;44.118;27.258;2023-02-28T02:02:51;102232.44;;;4.56;100.00
6565;BME280;3316;44.118;27.258;2023-02-28T02:05:21;102227.44;;;4.39;100.00
6565;BME280;3316;44.118;27.258;2023-02-28T02:07:51;102245.50;;;4.35;100.00
6565;BME280;3316;44.118;27.258;2023-02-28T02:10:25;102242.97;;;4.36;100.00
6565;BME280;3316;44.118;27.258;2023-02-28T02:13:14;102238.97;;;4.44;100.00
6565;BME280;3316;44.118;27.258;2023-02-28T02:18:48;102212.47;;;4.34;100.00
6565;BME280;3316;44.118;27.258;2023-02-28T02:30:59;102205.06;;;4.44;100.00
6565;BME280;3316;44.118;27.258;2023-02-28T02:37:00;102199.69;;;4.40;100.00
6565;BME280;3316;44.118;27.258;2023-02-28T02:39:33;102187.41;;;4.37;100.00
6565;BME280;3316;44.118;27.258;2023-02-28T02:42:04;102189.19;;;4.38;100.00
6565;BME280;3316;44.118;27.258;2023-02-28T02:44:44;102194.28;;;4.35;100.00
6565;BME280;3316;44.118;27.258;2023-02-28T02:47:15;102204.25;;;4.45;100.00
6565;BME280;3316;44.118;27.258;2023-02-28T02:49:46;102194.56;;;4.43;100.00
6565;BME280;3316;44.118;27.258;2023-02-28T02:52:16;102201.84;;;4.29;100.00
6565;BME280;3316;44.118;27.258;2023-02-28T02:54:45;102223.31;;;4.44;100.00
6565;BME280;3316;44.118;27.258;2023-02-28T02:57:17;102230.44;;;4.48;100.00
6565;BME280;3316;44.118;27.258;2023-02-28T02:59:47;102232.19;;;4.49;100.00
6565;BME280;3316;44.118;27.258;2023-02-28T03:02:15;102241.81;;;4.50;100.00
6565;BME280;3316;44.118;27.258;2023-02-28T03:04:46;102232.91;;;4.45;100.00
6565;BME280;3316;44.118;27.258;2023-02-28T03:07:13;102250.34;;;4.46;100.00
6565;BME280;3316;44.118;27.258;2023-02-28T03:09:39;102250.13;;;4.42;100.00
6565;BME280;3316;44.118;27.258;2023-02-28T03:22:52;102265.47;;;4.57;100.00
6565;BME280;3316;44.118;27.258;2023-02-28T03:25:29;102256.38;;;4.45;100.00
6565;BME280;3316;44.118;27.258;2023-02-28T03:33:12;102269.03;;;4.36;100.00
6565;BME280;3316;44.118;27.258;2023-02-28T03:35:43;102293.44;;;4.38;100.00
6565;BME280;3316;44.118;27.258;2023-02-28T03:38:33;102291.69;;;4.39;100.00
6565;BME280;3316;44.118;27.258;2023-02-28T03:41:14;102301.41;;;4.43;100.00
6565;BME280;3316;44.118;27.258;2023-02-28T03:43:44;102290.44;;;4.29;100.00
6565;BME280;3316;44.118;27.258;2023-02-28T03:46:14;102304.41;;;4.31;100.00
6565;BME280;3316;44.118;27.258;2023-02-28T03:48:45;102297.25;;;4.46;100.00
6565;BME280;3316;44.118;27.258;2023-02-28T03:51:19;102293.34;;;4.37;100.00
6565;BME280;3316;44.118;27.258;2023-02-28T03:53:53;102274.75;;;4.28;100.00
6565;BME280;3316;44.118;27.258;2023-02-28T03:56:29;102289.88;;;4.36;100.00
6565;BME280;3316;44.118;27.258;2023-02-28T03:59:15;102273.84;;;4.27;100.00
6565;BME280;3316;44.118;27.258;2023-02-28T04:01:45;102277.59;;;4.34;100.00
6565;BME280;3316;44.118;27.258;2023-02-28T04:04:13;102281.09;;;4.34;100.00
6565;BME280;3316;44.118;27.258;2023-02-28T04:06:39;102272.13;;;4.28;100.00
6565;BME280;3316;44.118;27.258;2023-02-28T04:09:07;102281.16;;;4.36;100.00
6565;BME280;3316;44.118;27.258;2023-02-28T04:11:38;102278.25;;;4.28;100.00
6565;BME280;3316;44.118;27.258;2023-02-28T04:14:06;102287.13;;;4.33;100.00
6565;BME280;3316;44.118;27.258;2023-02-28T04:16:34;102286.69;;;4.43;100.00
6565;BME280;3316;44.118;27.258;2023-02-28T04:18:59;102290.59;;;4.32;100.00
6565;BME280;3316;44.118;27.258;2023-02-28T04:21:31;102300.09;;;4.32;100.00
6565;BME280;3316;44.118;27.258;2023-02-28T04:23:57;102303.03;;;4.39;100.00
6565;BME280;3316;44.118;27.258;2023-02-28T04:26:28;102299.22;;;4.31;100.00
6565;BME280;3316;44.118;27.258;2023-02-28T04:28:53;102294.13;;;4.34;100.00
6565;BME280;3316;44.118;27.258;2023-02-28T04:31:19;102281.75;;;4.29;100.00
6565;BME280;3316;44.118;27.258;2023-02-28T04:33:44;102289.03;;;4.37;100.00
6565;BME280;3316;44.118;27.258;2023-02-28T04:36:10;102298.00;;;4.44;100.00
6565;BME280;3316;44.118;27.258;2023-02-28T04:38:37;102303.31;;;4.47;100.00
6565;BME280;3316;44.118;27.258;2023-02-28T04:41:03;102291.94;;;4.45;100.00
6565;BME280;3316;44.118;27.258;2023-02-28T04:43:29;102289.03;;;4.37;100.00
6565;BME280;3316;44.118;27.258;2023-02-28T04:45:56;102309.19;;;4.41;100.00
6565;BME280;3316;44.118;27.258;2023-02-28T04:48:27;102308.44;;;4.44;100.00
6565;BME280;3316;44.118;27.258;2023-02-28T04:50:53;102280.31;;;4.37;100.00
6565;BME280;3316;44.118;27.258;2023-02-28T04:53:19;102290.03;;;4.41;100.00
6565;BME280;3316;44.118;27.258;2023-02-28T04:55:44;102280.41;;;4.38;100.00
6565;BME280;3316;44.118;27.258;2023-02-28T04:58:11;102285.44;;;4.34;100.00
6565;BME280;3316;44.118;27.258;2023-02-28T05:00:36;102300.47;;;4.41;100.00
6565;BME280;3316;44.118;27.258;2023-02-28T05:03:02;102283.78;;;4.36;100.00
6565;BME280;3316;44.118;27.258;2023-02-28T05:05:27;102250.88;;;4.17;100.00
6565;BME280;3316;44.118;27.258;2023-02-28T05:07:53;102301.69;;;4.49;100.00
6565;BME280;3316;44.118;27.258;2023-02-28T05:10:21;102291.38;;;4.31;100.00
6565;BME280;3316;44.118;27.258;2023-02-28T05:12:46;102268.00;;;4.12;100.00
6565;BME280;3316;44.118;27.258;2023-02-28T05:15:16;102303.56;;;4.31;100.00
6565;BME280;3316;44.118;27.258;2023-02-28T05:17:42;102311.44;;;4.32;100.00
6565;BME280;3316;44.118;27.258;2023-02-28T05:20:09;102328.72;;;4.30;100.00
6565;BME280;3316;44.118;27.258;2023-02-28T05:22:36;102292.56;;;4.17;100.00
6565;BME280;3316;44.118;27.258;2023-02-28T05:25:03;102326.09;;;4.30;100.00
6565;BME280;3316;44.118;27.258;2023-02-28T05:27:30;102327.97;;;4.33;100.00
6565;BME280;3316;44.118;27.258;2023-02-28T05:29:55;102334.09;;;4.35;100.00
6565;BME280;3316;44.118;27.258;2023-02-28T05:32:21;102347.28;;;4.38;100.00
6565;BME280;3316;44.118;27.258;2023-02-28T05:34:46;102351.16;;;4.27;100.00
6565;BME280;3316;44.118;27.258;2023-02-28T05:37:13;102355.56;;;4.29;100.00
6565;BME280;3316;44.118;27.258;2023-02-28T05:39:39;102336.13;;;4.21;100.00
6565;BME280;3316;44.118;27.258;2023-02-28T05:42:04;102363.81;;;4.38;100.00
6565;BME280;3316;44.118;27.258;2023-02-28T05:44:30;102363.66;;;4.35;100.00
6565;BME280;3316;44.118;27.258;2023-02-28T05:46:55;102359.28;;;4.34;100.00
6565;BME280;3316;44.118;27.258;2023-02-28T05:49:21;102380.50;;;4.43;100.00
6565;BME280;3316;44.118;27.258;2023-02-28T05:51:47;102377.34;;;4.50;100.00
6565;BME280;3316;44.118;27.258;2023-02-28T05:54:12;102376.06;;;4.41;100.00
6565;BME280;3316;44.118;27.258;2023-02-28T05:56:37;102385.22;;;4.52;100.00
6565;BME280;3316;44.118;27.258;2023-02-28T05:59:05;102396.41;;;4.49;100.00
6565;BME280;3316;44.118;27.258;2023-02-28T06:04:06;102378.03;;;4.67;100.00
6565;BME280;3316;44.118;27.258;2023-02-28T06:06:32;102361.72;;;4.50;100.00
6565;BME280;3316;44.118;27.258;2023-02-28T06:08:59;102366.09;;;4.51;100.00
6565;BME280;3316;44.118;27.258;2023-02-28T06:11:26;102342.75;;;4.34;100.00
6565;BME280;3316;44.118;27.258;2023-02-28T06:13:58;102374.97;;;4.57;100.00
6565;BME280;3316;44.118;27.258;2023-02-28T06:16:26;102376.81;;;4.59;100.00
6565;BME280;3316;44.118;27.258;2023-02-28T06:18:51;102375.38;;;4.66;100.00
6565;BME280;3316;44.118;27.258;2023-02-28T06:21:18;102388.53;;;4.69;100.00
6565;BME280;3316;44.118;27.258;2023-02-28T06:23:44;102376.19;;;4.65;100.00
6565;BME280;3316;44.118;27.258;2023-02-28T06:26:10;102376.19;;;4.65;100.00
6565;BME280;3316;44.118;27.258;2023-02-28T06:28:35;102365.69;;;4.63;100.00
6565;BME280;3316;44.118;27.258;2023-02-28T06:31:06;102378.53;;;4.59;100.00
6565;BME280;3316;44.118;27.258;2023-02-28T06:33:32;102361.72;;;4.50;100.00
6565;BME280;3316;44.118;27.258;2023-02-28T06:35:57;102377.03;;;4.64;100.00
6565;BME280;3316;44.118;27.258;2023-02-28T06:38:22;102368.06;;;4.57;100.00
6565;BME280;3316;44.118;27.258;2023-02-28T06:40:56;102365.84;;;4.66;100.00
6565;BME280;3316;44.118;27.258;2023-02-28T06:43:22;102382.81;;;4.77;100.00
6565;BME280;3316;44.118;27.258;2023-02-28T06:45:47;102368.63;;;4.71;100.00
6565;BME280;3316;44.118;27.258;2023-02-28T06:48:13;102383.16;;;4.86;100.00
6565;BME280;3316;44.118;27.258;2023-02-28T06:50:38;102388.53;;;4.89;100.00
6565;BME280;3316;44.118;27.258;2023-02-28T06:53:04;102385.50;;;5.01;100.00
6565;BME280;3316;44.118;27.258;2023-02-28T06:55:30;102374.88;;;4.96;100.00
6565;BME280;3316;44.118;27.258;2023-02-28T06:57:55;102390.66;;;4.99;100.00
6565;BME280;3316;44.118;27.258;2023-02-28T07:00:21;102373.19;;;4.97;100.00
6565;BME280;3316;44.118;27.258;2023-02-28T07:02:46;102365.34;;;4.97;100.00
6565;BME280;3316;44.118;27.258;2023-02-28T07:05:12;102369.31;;;5.09;100.00
6565;BME280;3316;44.118;27.258;2023-02-28T07:07:38;102355.63;;;4.93;100.00
6565;BME280;3316;44.118;27.258;2023-02-28T07:10:10;102354.13;;;4.99;100.00
6565;BME280;3316;44.118;27.258;2023-02-28T07:12:36;102370.25;;;5.11;100.00
6565;BME280;3316;44.118;27.258;2023-02-28T07:15:03;102359.72;;;5.08;100.00
6565;BME280;3316;44.118;27.258;2023-02-28T07:17:29;102376.63;;;5.18;100.00
6565;BME280;3316;44.118;27.258;2023-02-28T07:19:55;102363.16;;;5.07;100.00
6565;BME280;3316;44.118;27.258;2023-02-28T07:22:20;102379.41;;;5.22;100.00
6565;BME280;3316;44.118;27.258;2023-02-28T07:24:45;102378.88;;;5.09;100.00
6565;BME280;3316;44.118;27.258;2023-02-28T07:27:11;102342.38;;;4.88;100.00
6565;BME280;3316;44.118;27.258;2023-02-28T07:29:36;102349.00;;;5.01;100.00
6565;BME280;3316;44.118;27.258;2023-02-28T07:32:03;102352.72;;;5.07;100.00
6565;BME280;3316;44.118;27.258;2023-02-28T07:34:29;102371.41;;;5.18;100.00
6565;BME280;3316;44.118;27.258;2023-02-28T07:36:54;102374.91;;;5.18;100.00
6565;BME280;3316;44.118;27.258;2023-02-28T07:39:21;102370.56;;;4.97;100.00
6565;BME280;3316;44.118;27.258;2023-02-28T07:41:46;102390.78;;;5.02;100.00
6565;BME280;3316;44.118;27.258;2023-02-28T07:44:12;102370.63;;;4.98;100.00
6565;BME280;3316;44.118;27.258;2023-02-28T07:46:38;102389.22;;;5.07;100.00
6565;BME280;3316;44.118;27.258;2023-02-28T07:49:04;102397.31;;;5.13;100.00
6565;BME280;3316;44.118;27.258;2023-02-28T07:51:30;102391.22;;;5.13;100.00
6565;BME280;3316;44.118;27.258;2023-02-28T07:53:56;102404.56;;;5.20;100.00
6565;BME280;3316;44.118;27.258;2023-02-28T07:56:21;102398.91;;;5.10;100.00
6565;BME280;3316;44.118;27.258;2023-02-28T07:58:47;102361.75;;;4.93;100.00
6565;BME280;3316;44.118;27.258;2023-02-28T08:01:12;102412.69;;;5.28;100.00
6565;BME280;3316;44.118;27.258;2023-02-28T08:03:38;102402.47;;;5.12;100.00
6565;BME280;3316;44.118;27.258;2023-02-28T08:06:06;102415.16;;;5.25;100.00
6565;BME280;3316;44.118;27.258;2023-02-28T08:08:31;102392.19;;;5.15;100.00
6565;BME280;3316;44.118;27.258;2023-02-28T08:11:01;102396.59;;;5.17;100.00
6565;BME280;3316;44.118;27.258;2023-02-28T08:13:28;102407.22;;;5.22;100.00
6565;BME280;3316;44.118;27.258;2023-02-28T08:15:54;102393.19;;;5.18;100.00
6565;BME280;3316;44.118;27.258;2023-02-28T08:18:21;102382.44;;;5.11;100.00
6565;BME280;3316;44.118;27.258;2023-02-28T08:20:47;102394.59;;;5.32;100.00
6565;BME280;3316;44.118;27.258;2023-02-28T08:23:12;102402.13;;;5.25;100.00
6565;BME280;3316;44.118;27.258;2023-02-28T08:25:38;102393.44;;;5.24;100.00
6565;BME280;3316;44.118;27.258;2023-02-28T08:28:04;102395.78;;;5.40;100.00
6565;BME280;3316;44.118;27.258;2023-02-28T08:30:29;102384.94;;;5.30;100.00
6565;BME280;3316;44.118;27.258;2023-02-28T08:32:55;102405.03;;;5.32;100.00
6565;BME280;3316;44.118;27.258;2023-02-28T08:35:21;102405.53;;;5.22;100.00
6565;BME280;3316;44.118;27.258;2023-02-28T08:37:49;102395.19;;;5.25;100.00
6565;BME280;3316;44.118;27.258;2023-02-28T08:40:15;102411.28;;;5.36;100.00
6565;BME280;3316;44.118;27.258;2023-02-28T08:42:44;102406.41;;;5.45;100.00
6565;BME280;3316;44.118;27.258;2023-02-28T08:45:11;102391.78;;;5.50;100.00
6565;BME280;3316;44.118;27.258;2023-02-28T08:47:36;102404.53;;;5.65;100.00
6565;BME280;3316;44.118;27.258;2023-02-28T08:50:02;102409.94;;;5.69;100.00
6565;BME280;3316;44.118;27.258;2023-02-28T08:52:27;102417.94;;;5.74;100.00
6565;BME280;3316;44.118;27.258;2023-02-28T08:54:53;102403.66;;;5.64;100.00
6565;BME280;3316;44.118;27.258;2023-02-28T08:57:18;102420.81;;;5.81;100.00
6565;BME280;3316;44.118;27.258;2023-02-28T08:59:43;102413.88;;;5.82;100.00
6565;BME280;3316;44.118;27.258;2023-02-28T09:02:12;102413.16;;;5.84;100.00
6565;BME280;3316;44.118;27.258;2023-02-28T09:04:38;102417.09;;;5.97;100.00
6565;BME280;3316;44.118;27.258;2023-02-28T09:07:04;102417.94;;;5.96;100.00
6565;BME280;3316;44.118;27.258;2023-02-28T09:09:29;102416.31;;;5.99;100.00
6565;BME280;3316;44.118;27.258;2023-02-28T09:11:58;102424.56;;;6.10;100.00
6565;BME280;3316;44.118;27.258;2023-02-28T09:14:23;102403.22;;;5.98;100.00
6565;BME280;3316;44.118;27.258;2023-02-28T09:16:49;102414.47;;;6.20;100.00
6565;BME280;3316;44.118;27.258;2023-02-28T09:19:14;102430.56;;;6.07;100.00
6565;BME280;3316;44.118;27.258;2023-02-28T09:21:40;102423.50;;;6.05;100.00
6565;BME280;3316;44.118;27.258;2023-02-28T09:24:06;102418.34;;;6.06;100.00
6565;BME280;3316;44.118;27.258;2023-02-28T09:26:31;102411.09;;;6.23;100.00
6565;BME280;3316;44.118;27.258;2023-02-28T09:28:57;102424.97;;;6.46;100.00
6565;BME280;3316;44.118;27.258;2023-02-28T09:31:26;102419.94;;;6.52;100.00
6565;BME280;3316;44.118;27.258;2023-02-28T09:33:54;102415.09;;;6.37;100.00
6565;BME280;3316;44.118;27.258;2023-02-28T09:36:21;102415.53;;;6.49;100.00
6565;BME280;3316;44.118;27.258;2023-02-28T09:38:47;102401.63;;;6.52;100.00
6565;BME280;3316;44.118;27.258;2023-02-28T09:41:15;102422.63;;;6.53;100.00
6565;BME280;3316;44.118;27.258;2023-02-28T09:43:46;102410.59;;;6.33;100.00
6565;BME280;3316;44.118;27.258;2023-02-28T09:46:23;102382.84;;;5.89;100.00
6565;BME280;3316;44.118;27.258;2023-02-28T09:48:51;102419.13;;;6.27;100.00
6565;BME280;3316;44.118;27.258;2023-02-28T09:51:30;102403.72;;;6.11;100.00
6565;BME280;3316;44.118;27.258;2023-02-28T09:53:57;102404.59;;;6.12;100.00
6565;BME280;3316;44.118;27.258;2023-02-28T09:56:41;102406.25;;;6.34;100.00
6565;BME280;3316;44.118;27.258;2023-02-28T09:59:29;102404.66;;;6.13;100.00
6565;BME280;3316;44.118;27.258;2023-02-28T10:02:19;102403.44;;;6.04;100.00
6565;BME280;3316;44.118;27.258;2023-02-28T10:05:00;102408.03;;;6.11;100.00
6565;BME280;3316;44.118;27.258;2023-02-28T10:10:24;102413.03;;;6.28;100.00
6565;BME280;3316;44.118;27.258;2023-02-28T10:12:53;102411.75;;;6.41;100.00
6565;BME280;3316;44.118;27.258;2023-02-28T10:15:22;102410.63;;;6.60;100.00
6565;BME280;3316;44.118;27.258;2023-02-28T10:17:53;102406.34;;;6.62;100.00
6565;BME280;3316;44.118;27.258;2023-02-28T10:20:21;102391.63;;;6.65;100.00
6565;BME280;3316;44.118;27.258;2023-02-28T10:22:58;102410.38;;;6.52;100.00
6565;BME280;3316;44.118;27.258;2023-02-28T10:25:27;102409.47;;;6.52;100.00
6565;BME280;3316;44.118;27.258;2023-02-28T10:27:54;102407.94;;;6.57;100.00
6565;BME280;3316;44.118;27.258;2023-02-28T10:30:22;102401.38;;;6.44;100.00
6565;BME280;3316;44.118;27.258;2023-02-28T10:32:51;102412.81;;;6.48;100.00
6565;BME280;3316;44.118;27.258;2023-02-28T10:35:22;102408.44;;;6.47;100.00
6565;BME280;3316;44.118;27.258;2023-02-28T10:37:54;102411.19;;;6.75;100.00
6565;BME280;3316;44.118;27.258;2023-02-28T10:46:02;102338.13;;;6.56;100.00
6565;BME280;3316;44.118;27.258;2023-02-28T10:51:07;102390.34;;;6.78;100.00
6565;BME280;3316;44.118;27.258;2023-02-28T10:53:39;102385.19;;;6.81;100.00
6565;BME280;3316;44.118;27.258;2023-02-28T11:01:40;102379.25;;;6.60;100.00
6565;BME280;3316;44.118;27.258;2023-02-28T11:07:21;102374.13;;;6.63;100.00
6565;BME280;3316;44.118;27.258;2023-02-28T11:09:52;102370.78;;;6.67;100.00
6565;BME280;3316;44.118;27.258;2023-02-28T11:12:47;102361.06;;;6.63;100.00
6565;BME280;3316;44.118;27.258;2023-02-28T11:15:27;102358.31;;;6.60;100.00
6565;BME280;3316;44.118;27.258;2023-02-28T11:17:58;102349.09;;;6.44;100.00
6565;BME280;3316;44.118;27.258;2023-02-28T11:20:26;102362.41;;;6.52;100.00
6565;BME280;3316;44.118;27.258;2023-02-28T11:22:53;102361.94;;;6.63;100.00
6565;BME280;3316;44.118;27.258;2023-02-28T11:27:50;102358.28;;;7.11;100.00
6565;BME280;3316;44.118;27.258;2023-02-28T11:30:32;102360.19;;;7.17;100.00
6565;BME280;3316;44.118;27.258;2023-02-28T11:33:25;102365.50;;;6.92;100.00
6565;BME280;3316;44.118;27.258;2023-02-28T11:35:53;102361.28;;;6.97;100.00
6565;BME280;3316;44.118;27.258;2023-02-28T11:38:20;102348.91;;;6.91;100.00
6565;BME280;3316;44.118;27.258;2023-02-28T11:43:36;102311.69;;;6.47;100.00
6565;BME280;3316;44.118;27.258;2023-02-28T11:51:47;102341.81;;;6.87;100.00
6565;BME280;3316;44.118;27.258;2023-02-28T11:57:08;102341.69;;;7.11;100.00
6565;BME280;3316;44.118;27.258;2023-02-28T12:02:28;102344.16;;;7.06;100.00
6565;BME280;3316;44.118;27.258;2023-02-28T12:07:50;102334.53;;;7.05;100.00
6565;BME280;3316;44.118;27.258;2023-02-28T12:10:26;102342.34;;;7.04;100.00
6565;BME280;3316;44.118;27.258;2023-02-28T12:15:41;102329.69;;;7.17;100.00
6565;BME280;3316;44.118;27.258;2023-02-28T12:18:22;102328.38;;;7.03;100.00
6565;BME280;3316;44.118;27.258;2023-02-28T12:26:44;102330.34;;;7.12;100.00
6565;BME280;3316;44.118;27.258;2023-02-28T12:29:17;102326.47;;;6.98;100.00
6565;BME280;3316;44.118;27.258;2023-02-28T12:32:33;102343.53;;;6.87;100.00
6565;BME280;3316;44.118;27.258;2023-02-28T12:37:53;102342.06;;;6.68;100.00
6565;BME280;3316;44.118;27.258;2023-02-28T12:40:25;102337.38;;;6.58;100.00
6565;BME280;3316;44.118;27.258;2023-02-28T12:42:59;102331.25;;;6.58;100.00
6565;BME280;3316;44.118;27.258;2023-02-28T12:48:11;102325.22;;;6.87;100.00
6565;BME280;3316;44.118;27.258;2023-02-28T12:50:40;102311.16;;;6.83;100.00
6565;BME280;3316;44.118;27.258;2023-02-28T12:53:15;102321.56;;;6.82;100.00
6565;BME280;3316;44.118;27.258;2023-02-28T12:58:37;102301.44;;;6.53;100.00
6565;BME280;3316;44.118;27.258;2023-02-28T13:03:55;102303.38;;;6.58;100.00
6565;BME280;3316;44.118;27.258;2023-02-28T13:06:33;102314.47;;;6.78;100.00
6565;BME280;3316;44.118;27.258;2023-02-28T13:14:05;102312.13;;;6.87;100.00
6565;BME280;3316;44.118;27.258;2023-02-28T13:16:58;102319.94;;;6.85;100.00
6565;BME280;3316;44.118;27.258;2023-02-28T13:19:26;102313.50;;;6.74;100.00
6565;BME280;3316;44.118;27.258;2023-02-28T13:21:53;102323.44;;;6.86;100.00
6565;BME280;3316;44.118;27.258;2023-02-28T13:24:58;102317.31;;;6.85;100.00
6565;BME280;3316;44.118;27.258;2023-02-28T13:27:38;102303.31;;;6.83;100.00
6565;BME280;3316;44.118;27.258;2023-02-28T13:36:07;102288.38;;;6.81;100.00
6565;BME280;3316;44.118;27.258;2023-02-28T13:38:35;102299.97;;;6.89;100.00
6565;BME280;3316;44.118;27.258;2023-02-28T13:44:12;102304.88;;;7.06;100.00
6565;BME280;3316;44.118;27.258;2023-02-28T13:49:27;102317.19;;;7.09;100.00
6565;BME280;3316;44.118;27.258;2023-02-28T13:57:37;102300.91;;;6.91;100.00
6565;BME280;3316;44.118;27.258;2023-02-28T14:00:17;102294.16;;;6.97;100.00
6565;BME280;3316;44.118;27.258;2023-02-28T14:05:27;102271.00;;;6.83;100.00
6565;BME280;3316;44.118;27.258;2023-02-28T14:07:57;102300.31;;;6.99;100.00
6565;BME280;3316;44.118;27.258;2023-02-28T14:10:28;102259.44;;;6.75;100.00
6565;BME280;3316;44.118;27.258;2023-02-28T14:17:59;102303.72;;;7.25;100.00
6565;BME280;3316;44.118;27.258;2023-02-28T14:20:29;102306.31;;;7.24;100.00
6565;BME280;3316;44.118;27.258;2023-02-28T14:31:58;102282.09;;;7.02;100.00
6565;BME280;3316;44.118;27.258;2023-02-28T14:34:49;102284.59;;;6.98;100.00
6565;BME280;3316;44.118;27.258;2023-02-28T14:37:27;102286.31;;;6.97;100.00
6565;BME280;3316;44.118;27.258;2023-02-28T14:39:54;102294.94;;;6.95;100.00
6565;BME280;3316;44.118;27.258;2023-02-28T14:42:35;102288.81;;;6.94;100.00
6565;BME280;3316;44.118;27.258;2023-02-28T14:45:03;102291.31;;;6.90;100.00
6565;BME280;3316;44.118;27.258;2023-02-28T14:47:34;102292.13;;;6.89;100.00
6565;BME280;3316;44.118;27.258;2023-02-28T14:50:03;102287.84;;;6.91;100.00
6565;BME280;3316;44.118;27.258;2023-02-28T14:52:31;102296.19;;;7.06;100.00
6565;BME280;3316;44.118;27.258;2023-02-28T14:54:59;102294.19;;;6.99;100.00
6565;BME280;3316;44.118;27.258;2023-02-28T14:57:34;102304.66;;;6.99;100.00
6565;BME280;3316;44.118;27.258;2023-02-28T15:00:11;102305.38;;;6.93;100.00
6565;BME280;3316;44.118;27.258;2023-02-28T15:02:39;102287.56;;;6.82;100.00
6565;BME280;3316;44.118;27.258;2023-02-28T15:07:46;102285.84;;;6.82;100.00
6565;BME280;3316;44.118;27.258;2023-02-28T15:10:26;102277.75;;;6.75;100.00
6565;BME280;3316;44.118;27.258;2023-02-28T15:13:15;102281.25;;;6.75;100.00
6565;BME280;3316;44.118;27.258;2023-02-28T15:15:55;102256.88;;;6.76;100.00
6565;BME280;3316;44.118;27.258;2023-02-28T15:18:30;102264.94;;;6.84;100.00
6565;BME280;3316;44.118;27.258;2023-02-28T15:21:03;102273.69;;;6.84;100.00
6565;BME280;3316;44.118;27.258;2023-02-28T15:23:31;102279.78;;;6.85;100.00
6565;BME280;3316;44.118;27.258;2023-02-28T15:26:00;102278.81;;;6.81;100.00
6565;BME280;3316;44.118;27.258;2023-02-28T15:28:26;102267.53;;;6.82;100.00